M I D A S
Marine Information and Data Acquisition System
Tripno 129 of the Zeeleeuw from 2001-05-11 11:20:00 to 2001-05-11 14:45:00
Back to CruiseResearch ActivitiesStationsMapUnderway DataData graphs

EquipmentUnitsComment
TimeDGPSUTC
LatitudeDGPSDM.mWGS84
LongitudeDGPSDM.mWGS84
HeadingGyrodeg 
SOGDGPSknotsSpeed over ground
COGDGPSdegCourse over ground
DepthEcho soundermeters200 kHz
Missing or incorrect values are displayed as -999
Navigation data collected by the RV Zeeleeuw from 2001-05-11 11:20:00 to 2001-05-11 14:45:00
                                                                                    Next 1000 lines
Time Latitude Longitude Heading SOG COG Depth
2001-05-11 11:20:09 51°12.33 2°48.765 55.8 1.8 62.7 8.9
2001-05-11 11:20:14 51°12.331 2°48.768 55.8 1.8 60.8 8.9
2001-05-11 11:20:19 51°12.333 2°48.772 55.7 1.8 58.6 8.9
2001-05-11 11:20:24 51°12.334 2°48.775 55.8 1.9 64.3 8.9
2001-05-11 11:20:29 51°12.335 2°48.779 55.5 1.7 60.5 8.9
2001-05-11 11:20:34 51°12.336 2°48.782 55.5 1.8 59.2 8.9
2001-05-11 11:20:39 51°12.337 2°48.786 55.5 1.8 60.5 8.9
2001-05-11 11:20:44 51°12.339 2°48.789 55.3 1.7 56.4 8.8
2001-05-11 11:20:49 51°12.34 2°48.792 55.3 1.8 61.6 8.9
2001-05-11 11:20:54 51°12.341 2°48.796 55.2 1.8 58.9 8.9
2001-05-11 11:20:59 51°12.342 2°48.799 54.8 1.8 58.4 8.8
2001-05-11 11:21:04 51°12.344 2°48.803 54.8 1.8 61.5 9
2001-05-11 11:21:09 51°12.345 2°48.806 54.7 1.8 60.3 9
2001-05-11 11:21:14 51°12.346 2°48.81 54.5 1.8 59.9 8.9
2001-05-11 11:21:19 51°12.347 2°48.813 54.3 1.8 60.8 8.7
2001-05-11 11:21:24 51°12.349 2°48.816 54.2 1.8 54.9 9
2001-05-11 11:21:29 51°12.35 2°48.819 54.2 1.8 54.7 9
2001-05-11 11:21:34 51°12.351 2°48.823 54 1.9 60.5 8.9
2001-05-11 11:21:39 51°12.353 2°48.826 53.8 1.8 54.8 8.9
2001-05-11 11:21:44 51°12.354 2°48.83 53.7 1.8 56.2 8.9
2001-05-11 11:21:49 51°12.356 2°48.833 53.7 1.7 54.2 8.9
2001-05-11 11:21:55 51°12.357 2°48.838 53.8 1.8 58.9 8.9
2001-05-11 11:21:59 51°12.358 2°48.84 54 1.8 60.9 8.9
2001-05-11 11:22:04 51°12.36 2°48.844 54.3 1.8 59.2 8.9
2001-05-11 11:22:09 51°12.361 2°48.847 54.7 1.9 59.2 8.9
2001-05-11 11:22:14 51°12.362 2°48.851 54.8 1.9 59.8 8.9
2001-05-11 11:22:19 51°12.364 2°48.854 55 1.9 62.8 9
2001-05-11 11:22:24 51°12.365 2°48.858 55.3 1.9 57.2 9
2001-05-11 11:22:29 51°12.366 2°48.862 56 1.9 61.7 9
2001-05-11 11:22:34 51°12.367 2°48.866 56.5 1.9 62.4 9
2001-05-11 11:22:39 51°12.368 2°48.87 57 1.8 62.7 9
2001-05-11 11:22:44 51°12.369 2°48.873 57.7 1.9 65.1 8.8
2001-05-11 11:22:49 51°12.37 2°48.877 58.5 1.9 66.5 8.9
2001-05-11 11:22:55 51°12.371 2°48.882 59.3 1.8 65.9 8.9
2001-05-11 11:22:59 51°12.372 2°48.885 60.3 1.9 68.2 8.9
2001-05-11 11:23:04 51°12.373 2°48.889 61 2 66.7 9
2001-05-11 11:23:09 51°12.374 2°48.892 61.3 1.9 68.5 9
2001-05-11 11:23:14 51°12.375 2°48.896 61.7 2 70.9 8.9
2001-05-11 11:23:19 51°12.375 2°48.9 62 1.9 76.5 8.9
2001-05-11 11:23:24 51°12.376 2°48.904 62.2 1.9 69.7 8.9
2001-05-11 11:23:29 51°12.377 2°48.908 62.3 1.9 72.3 8.9
2001-05-11 11:23:34 51°12.378 2°48.912 62.5 2 70.9 9
2001-05-11 11:23:39 51°12.379 2°48.916 62.3 1.9 72.7 8.9
2001-05-11 11:23:44 51°12.379 2°48.921 62.3 2 70 8.9
2001-05-11 11:23:49 51°12.38 2°48.925 62.5 2 69.6 8.8
2001-05-11 11:23:54 51°12.381 2°48.929 62.7 2 69.5 8.9
2001-05-11 11:23:59 51°12.382 2°48.933 62.5 2 70.1 8.8
2001-05-11 11:24:04 51°12.383 2°48.937 62.5 2 71.9 9
2001-05-11 11:24:09 51°12.383 2°48.941 62.5 2 71.3 8.9
2001-05-11 11:24:14 51°12.384 2°48.946 62.5 2 71.7 8.9
2001-05-11 11:24:19 51°12.385 2°48.95 62.5 2 69.5 8.8
2001-05-11 11:24:24 51°12.386 2°48.954 62.5 2 73.2 8.7
2001-05-11 11:24:29 51°12.387 2°48.958 62.5 1.9 71.9 8.7
2001-05-11 11:24:34 51°12.387 2°48.962 62.3 2 72.8 8.8
2001-05-11 11:24:39 51°12.388 2°48.967 62.2 1.9 72 8.7
2001-05-11 11:24:44 51°12.389 2°48.971 62 1.9 73.1 8.9
2001-05-11 11:24:49 51°12.39 2°48.975 61.8 2 71.1 8.9
2001-05-11 11:24:55 51°12.391 2°48.98 61.5 2 70.6 8.9
2001-05-11 11:24:59 51°12.392 2°48.983 61.2 1.9 69.3 8.9
2001-05-11 11:25:04 51°12.393 2°48.987 60.8 2 71.6 8.6
2001-05-11 11:25:09 51°12.393 2°48.991 60.3 1.9 71 8.8
2001-05-11 11:25:14 51°12.394 2°48.994 60 1.9 73.8 8.8
2001-05-11 11:25:19 51°12.395 2°48.998 59.7 1.9 67.9 8.8
2001-05-11 11:25:24 51°12.396 2°49.002 59 1.8 70.1 8.9
2001-05-11 11:25:29 51°12.397 2°49.005 58.7 1.8 70.6 8.9
2001-05-11 11:25:34 51°12.398 2°49.009 58.2 1.7 67.2 8.9
2001-05-11 11:25:39 51°12.399 2°49.012 57.7 1.6 66.9 8.8
2001-05-11 11:25:44 51°12.4 2°49.016 57.2 1.6 66 8.8
2001-05-11 11:25:49 51°12.401 2°49.019 56.8 1.5 64.5 8.8
2001-05-11 11:25:55 51°12.402 2°49.022 56.5 1.4 63 8.9
2001-05-11 11:25:59 51°12.403 2°49.025 56.2 1.4 62.5 8.9
2001-05-11 11:26:04 51°12.404 2°49.027 55.8 1.4 61.9 8.8
2001-05-11 11:26:09 51°12.404 2°49.03 55.5 1.3 63.6 8.8
2001-05-11 11:26:14 51°12.405 2°49.033 55.2 1.4 63.7 8.8
2001-05-11 11:26:19 51°12.406 2°49.035 55 1.3 63.3 8.8
2001-05-11 11:26:24 51°12.407 2°49.038 54.8 1.3 63 8.7
2001-05-11 11:26:29 51°12.408 2°49.04 55.2 1.3 62.3 8.7
2001-05-11 11:26:34 51°12.409 2°49.043 55.2 1.3 60 8.8
2001-05-11 11:26:39 51°12.409 2°49.045 55.7 1.3 64 8.8
2001-05-11 11:26:44 51°12.41 2°49.048 56.3 1.3 67 8.8
2001-05-11 11:26:49 51°12.411 2°49.051 56.8 1.3 64.6 8.7
2001-05-11 11:26:54 51°12.411 2°49.053 57.5 1.3 65.7 8.8
2001-05-11 11:26:59 51°12.412 2°49.056 58.3 1.2 70.7 8.9
2001-05-11 11:27:04 51°12.412 2°49.058 59.2 1.3 70.4 8.9
2001-05-11 11:27:09 51°12.413 2°49.061 60.2 1.2 73 8.8
2001-05-11 11:27:14 51°12.413 2°49.063 61 1.2 74.6 8.7
2001-05-11 11:27:19 51°12.413 2°49.066 62 1.2 80.6 8.8
2001-05-11 11:27:24 51°12.414 2°49.069 63.3 1.1 80.3 8.7
2001-05-11 11:27:29 51°12.414 2°49.071 64.3 1.1 82.5 8.8
2001-05-11 11:27:34 51°12.414 2°49.073 65.3 1.1 88.8 8.6
2001-05-11 11:27:39 51°12.414 2°49.075 66.5 1 91.3 8.8
2001-05-11 11:27:44 51°12.413 2°49.077 67.3 1 92.8 8.9
2001-05-11 11:27:49 51°12.413 2°49.08 68.5 1.1 105.1 8.8
2001-05-11 11:27:54 51°12.413 2°49.082 69.5 1.1 102.9 8.8
2001-05-11 11:27:59 51°12.413 2°49.084 70.5 1 101.5 8.8
2001-05-11 11:28:04 51°12.412 2°49.086 71.7 1 104.5 8.8
2001-05-11 11:28:09 51°12.412 2°49.089 72.5 1.1 108.1 8.8
2001-05-11 11:28:14 51°12.411 2°49.091 73.2 1 105.3 8.8
2001-05-11 11:28:19 51°12.411 2°49.093 74.2 1.1 112.6 8.8
2001-05-11 11:28:24 51°12.41 2°49.095 74.8 1.1 113.3 8.7
2001-05-11 11:28:29 51°12.409 2°49.097 75.5 1 119.1 8.8
2001-05-11 11:28:34 51°12.409 2°49.099 76.3 1.1 120.7 8.7
2001-05-11 11:28:39 51°12.408 2°49.101 77.2 1 121.6 8.7
2001-05-11 11:28:44 51°12.407 2°49.103 77.8 1.1 122.5 8.7
2001-05-11 11:28:49 51°12.406 2°49.105 78.5 1.1 125.4 8.7
2001-05-11 11:28:54 51°12.405 2°49.107 79.2 1.1 122.2 8.7
2001-05-11 11:28:59 51°12.405 2°49.109 79.8 1.1 124.9 8.6
2001-05-11 11:29:04 51°12.404 2°49.111 80.7 1.1 126.5 8.6
2001-05-11 11:29:09 51°12.403 2°49.113 81.3 1.1 124.7 8.6
2001-05-11 11:29:14 51°12.402 2°49.115 82 1.2 123.7 8.5
2001-05-11 11:29:19 51°12.401 2°49.117 82.7 1.1 122.8 8.5
2001-05-11 11:29:24 51°12.4 2°49.119 83.8 1.2 129.9 8.5
2001-05-11 11:29:29 51°12.399 2°49.121 84.7 1.2 132.5 8.5
2001-05-11 11:29:34 51°12.397 2°49.122 86 1.2 134.8 8.5
2001-05-11 11:29:39 51°12.396 2°49.124 87.8 1.2 141.7 8.5
2001-05-11 11:29:44 51°12.394 2°49.126 89.8 1.2 140.7 8.5
2001-05-11 11:29:49 51°12.393 2°49.128 92.2 1.2 140 8.5
2001-05-11 11:29:54 51°12.391 2°49.129 94.7 1.3 141.3 8.4
2001-05-11 11:29:59 51°12.389 2°49.131 97.3 1.4 146.9 8.4
2001-05-11 11:30:04 51°12.388 2°49.132 99.8 1.4 149.4 8.4
2001-05-11 11:30:09 51°12.386 2°49.134 102.7 1.3 150.8 8.4
2001-05-11 11:30:14 51°12.384 2°49.135 105.3 1.4 161.4 8.3
2001-05-11 11:30:19 51°12.382 2°49.136 107.2 1.5 157.1 8.4
2001-05-11 11:30:24 51°12.38 2°49.137 108.5 1.5 158.1 8.4
2001-05-11 11:30:29 51°12.378 2°49.138 109.5 1.6 160 8.4
2001-05-11 11:30:34 51°12.376 2°49.14 110.5 1.6 156.7 8.4
2001-05-11 11:30:39 51°12.374 2°49.141 111.5 1.5 157.4 8.4
2001-05-11 11:30:44 51°12.372 2°49.142 112 1.7 158.9 8.3
2001-05-11 11:30:49 51°12.37 2°49.143 112.5 1.6 156.9 8.3
2001-05-11 11:30:54 51°12.368 2°49.144 112.8 1.6 163.2 8.3
2001-05-11 11:30:59 51°12.367 2°49.145 112.8 1.6 162 8.3
2001-05-11 11:31:04 51°12.365 2°49.147 112.8 1.6 162 8.3
2001-05-11 11:31:09 51°12.363 2°49.148 112.8 1.6 160.9 8.3
2001-05-11 11:31:14 51°12.36 2°49.149 112.8 1.7 161.2 8.3
2001-05-11 11:31:19 51°12.358 2°49.15 112.8 1.7 161.4 8.3
2001-05-11 11:31:24 51°12.356 2°49.152 112.8 1.8 156.6 8.3
2001-05-11 11:31:29 51°12.354 2°49.153 113.3 2 156.6 8.2
2001-05-11 11:31:34 51°12.351 2°49.155 115.2 2.2 156 8.2
2001-05-11 11:31:39 51°12.348 2°49.158 118.2 2.5 152.2 8.2
2001-05-11 11:31:44 51°12.344 2°49.16 122.5 2.9 155.7 8.1
2001-05-11 11:31:49 51°12.339 2°49.163 128.3 3.6 159.9 8.1
2001-05-11 11:31:54 51°12.333 2°49.166 135.2 4.1 162.1 8.1
2001-05-11 11:31:59 51°12.327 2°49.168 142.7 4.6 169.2 8
2001-05-11 11:32:04 51°12.32 2°49.17 150.7 5 174.5 7.9
2001-05-11 11:32:09 51°12.313 2°49.17 158 5.4 182.2 7.9
2001-05-11 11:32:14 51°12.305 2°49.17 165.7 5.7 185.3 7.9
2001-05-11 11:32:19 51°12.297 2°49.167 173.5 6.1 193.4 7.8
2001-05-11 11:32:24 51°12.289 2°49.163 180.7 6.3 197.6 7.7
2001-05-11 11:32:29 51°12.28 2°49.157 188 6.5 204.1 7.7
2001-05-11 11:32:34 51°12.272 2°49.15 195.2 6.5 210.5 7.6
2001-05-11 11:32:39 51°12.265 2°49.142 202.5 6.5 215.2 7.7
2001-05-11 11:32:44 51°12.258 2°49.133 208.7 6.4 218.8 7.6
2001-05-11 11:32:49 51°12.251 2°49.123 214.8 6.3 224.3 7.6
2001-05-11 11:32:55 51°12.244 2°49.111 220.8 6.3 229.8 7.6
2001-05-11 11:32:59 51°12.24 2°49.102 226.3 6.2 234.5 7.6
2001-05-11 11:33:04 51°12.235 2°49.091 232.2 6.1 236.9 7.6
2001-05-11 11:33:09 51°12.231 2°49.079 238 5.9 243.3 7.6
2001-05-11 11:33:14 51°12.228 2°49.067 242.8 5.7 243.4 7.6
2001-05-11 11:33:19 51°12.225 2°49.056 247.2 5.5 248.8 7.6
2001-05-11 11:33:24 51°12.223 2°49.044 251.3 5.4 250.3 7.7
2001-05-11 11:33:29 51°12.221 2°49.033 254.8 5.1 253.8 7.7
2001-05-11 11:33:34 51°12.219 2°49.022 258 5.1 255.7 7.7
2001-05-11 11:33:39 51°12.217 2°49.012 261.5 4.8 259.1 7.7
2001-05-11 11:33:44 51°12.216 2°49.001 265.3 4.7 259.6 7.7
2001-05-11 11:33:49 51°12.216 2°48.991 268.7 4.5 262.6 7.7
2001-05-11 11:33:55 51°12.215 2°48.979 271.3 4.5 263.9 7.7
2001-05-11 11:33:59 51°12.215 2°48.972 274.3 4.2 266 7.8
2001-05-11 11:34:04 51°12.215 2°48.963 277.2 4.2 267.5 7.8
2001-05-11 11:34:09 51°12.215 2°48.954 279.8 4.2 269.7 7.8
2001-05-11 11:34:14 51°12.216 2°48.945 283 4.1 272.5 7.8
2001-05-11 11:34:19 51°12.216 2°48.936 286.3 4.1 274.3 7.9
2001-05-11 11:34:24 51°12.217 2°48.927 289.7 4 277.7 7.9
2001-05-11 11:34:29 51°12.218 2°48.918 293 4 280.3 7.9
2001-05-11 11:34:34 51°12.219 2°48.91 296.2 3.7 281.1 7.9
2001-05-11 11:34:39 51°12.22 2°48.902 299 3.7 282.3 7.9
2001-05-11 11:34:44 51°12.221 2°48.894 301.5 3.6 284.9 8
2001-05-11 11:34:49 51°12.223 2°48.887 303.8 3.5 284.9 8
2001-05-11 11:34:54 51°12.224 2°48.879 306 3.4 286.3 8
2001-05-11 11:34:59 51°12.225 2°48.872 308.3 3.4 288.6 8
2001-05-11 11:35:04 51°12.227 2°48.865 310.7 3.4 290.3 8.1
2001-05-11 11:35:09 51°12.229 2°48.858 312.8 3.3 291.4 8.1
2001-05-11 11:35:14 51°12.23 2°48.852 315 3.2 293.6 8.1
2001-05-11 11:35:19 51°12.232 2°48.846 317.2 3.1 294.3 8.2
2001-05-11 11:35:24 51°12.234 2°48.84 319.5 3 296 8.2
2001-05-11 11:35:29 51°12.235 2°48.834 321.7 2.9 298.5 8.2
2001-05-11 11:35:34 51°12.237 2°48.828 324 2.8 298.9 8.2
2001-05-11 11:35:39 51°12.239 2°48.823 326 2.7 297.9 8.3
2001-05-11 11:35:44 51°12.24 2°48.818 327.8 2.6 299.5 8.3
2001-05-11 11:35:49 51°12.242 2°48.813 329.3 2.6 301 8.4
2001-05-11 11:35:54 51°12.244 2°48.808 330.7 2.5 301 8.4
2001-05-11 11:35:59 51°12.246 2°48.803 331.7 2.4 300.7 8.4
2001-05-11 11:36:04 51°12.247 2°48.799 332.7 2.3 302.2 8.4
2001-05-11 11:36:09 51°12.249 2°48.795 333.3 2.3 301.4 8.4
2001-05-11 11:36:14 51°12.251 2°48.791 334 2.2 301.6 8.4
2001-05-11 11:36:19 51°12.252 2°48.786 334.5 2.2 300.1 8.5
2001-05-11 11:36:24 51°12.254 2°48.782 335 2.1 301.1 8.5
2001-05-11 11:36:29 51°12.255 2°48.779 335.5 2.1 298.8 8.6
2001-05-11 11:36:34 51°12.257 2°48.775 335.8 2 300 8.6
2001-05-11 11:36:39 51°12.258 2°48.771 336.3 2 299.6 8.6
2001-05-11 11:36:44 51°12.259 2°48.767 336.8 2 297.3 8.7
2001-05-11 11:36:49 51°12.26 2°48.763 337.2 1.9 296.9 8.7
2001-05-11 11:36:55 51°12.261 2°48.759 337.5 1.9 295.2 8.7
2001-05-11 11:36:59 51°12.262 2°48.756 337.7 1.9 294.8 8.7
2001-05-11 11:37:04 51°12.263 2°48.752 337.8 1.9 293 8.7
2001-05-11 11:37:09 51°12.264 2°48.748 337.8 1.8 293.3 8.8
2001-05-11 11:37:14 51°12.265 2°48.744 338 1.8 292.4 8.8
2001-05-11 11:37:19 51°12.266 2°48.741 338.2 1.8 290.5 8.8
2001-05-11 11:37:24 51°12.267 2°48.737 338 1.8 290.7 8.8
2001-05-11 11:37:29 51°12.267 2°48.733 338.2 1.8 290.2 8.8
2001-05-11 11:37:34 51°12.268 2°48.73 338.2 1.7 289 8.8
2001-05-11 11:37:39 51°12.269 2°48.726 338 1.8 284.4 8.9
2001-05-11 11:37:44 51°12.27 2°48.723 338 1.7 286.3 8.9
2001-05-11 11:37:49 51°12.27 2°48.719 338 1.8 281.4 8.9
2001-05-11 11:37:55 51°12.271 2°48.715 337.8 1.6 284.6 8.9
2001-05-11 11:37:59 51°12.271 2°48.712 337.8 1.8 277.8 8.9
2001-05-11 11:38:04 51°12.272 2°48.708 337.5 1.6 284.9 8.9
2001-05-11 11:38:09 51°12.272 2°48.704 337.7 1.7 281.8 8.9
2001-05-11 11:38:14 51°12.273 2°48.701 337.7 1.8 300.9 9
2001-05-11 11:38:19 51°12.275 2°48.697 339.7 2.2 307.1 9
2001-05-11 11:38:24 51°12.277 2°48.694 343.5 2.4 319.9 8.9
2001-05-11 11:38:29 51°12.281 2°48.69 349 2.7 332.4 9
2001-05-11 11:38:34 51°12.285 2°48.688 355 2.9 337.8 9.1
2001-05-11 11:38:39 51°12.289 2°48.687 1.5 3 351.3 9.1
2001-05-11 11:38:44 51°12.294 2°48.686 8.2 3.2 358.1 9.1
2001-05-11 11:38:49 51°12.298 2°48.687 14.5 3.4 8.4 9
2001-05-11 11:38:54 51°12.302 2°48.689 20.7 3.5 16.2 9.2
2001-05-11 11:38:59 51°12.308 2°48.691 27.2 3.6 27.1 9.2
2001-05-11 11:39:04 51°12.313 2°48.695 33.7 3.7 33.2 9.2
2001-05-11 11:39:09 51°12.316 2°48.701 40.7 3.8 44.6 9.2
2001-05-11 11:39:14 51°12.32 2°48.708 47.8 3.9 52.7 9.2
2001-05-11 11:39:19 51°12.322 2°48.715 54.8 4 63.5 9.2
2001-05-11 11:39:24 51°12.324 2°48.724 61.8 4.1 71.1 9.2
2001-05-11 11:39:29 51°12.325 2°48.733 68.5 4.2 81.5 9.2
2001-05-11 11:39:34 51°12.325 2°48.743 76 4.4 89.1 9
2001-05-11 11:39:39 51°12.324 2°48.753 83.2 4.5 99.4 9.2
2001-05-11 11:39:45 51°12.322 2°48.765 90.3 4.7 108.7 9.1
2001-05-11 11:39:49 51°12.32 2°48.773 97.3 4.9 119.2 9
2001-05-11 11:39:54 51°12.316 2°48.782 104.7 5.1 122.4 9
2001-05-11 11:40:00 51°12.31 2°48.792 111.5 5.3 132.1 9
2001-05-11 11:40:04 51°12.305 2°48.799 118.7 5.5 139.5 8.9
2001-05-11 11:40:09 51°12.298 2°48.806 126.3 5.7 149.1 8.8
2001-05-11 11:40:14 51°12.291 2°48.812 133.7 5.9 152.7 8.8
2001-05-11 11:40:19 51°12.283 2°48.816 141 6.2 160.9 8.7
2001-05-11 11:40:24 51°12.275 2°48.82 148.2 6.3 168.7 8.6
2001-05-11 11:40:29 51°12.266 2°48.821 155.3 6.5 172.6 8.5
2001-05-11 11:40:34 51°12.256 2°48.821 162.5 6.6 180.8 8.4
2001-05-11 11:40:39 51°12.247 2°48.82 169.7 6.9 186.4 8.3
2001-05-11 11:40:44 51°12.238 2°48.817 177.2 6.7 193.3 8.3
2001-05-11 11:40:49 51°12.229 2°48.813 184 7.1 199.3 8.2
2001-05-11 11:40:54 51°12.219 2°48.807 191.3 7.2 204.4 8.2
2001-05-11 11:40:59 51°12.211 2°48.799 198.8 7.3 210.9 8.1
2001-05-11 11:41:04 51°12.203 2°48.789 206 7.3 216.2 8.1
2001-05-11 11:41:09 51°12.196 2°48.778 213.2 7.3 224.5 8.1
2001-05-11 11:41:14 51°12.19 2°48.765 220.7 7.4 229.7 8.1
2001-05-11 11:41:19 51°12.184 2°48.752 227.8 7.4 236.9 8.1
2001-05-11 11:41:24 51°12.179 2°48.737 235.2 7.4 241.7 8
2001-05-11 11:41:29 51°12.175 2°48.722 242.2 7.4 249 8.1
2001-05-11 11:41:34 51°12.172 2°48.706 249.8 7.4 253.9 8.1
2001-05-11 11:41:39 51°12.17 2°48.69 257.5 7.3 261.5 8.1
2001-05-11 11:41:44 51°12.17 2°48.674 264.3 7.3 265.3 8.2
2001-05-11 11:41:49 51°12.17 2°48.658 271.7 7.2 273.5 8.2
2001-05-11 11:41:54 51°12.171 2°48.642 278.8 7.2 277.3 8.3
2001-05-11 11:41:59 51°12.173 2°48.627 285.7 6.9 283.4 8.3
2001-05-11 11:42:04 51°12.176 2°48.613 292.7 6.6 289.8 8.4
2001-05-11 11:42:09 51°12.179 2°48.6 298.5 6.2 293.4 8.5
2001-05-11 11:42:14 51°12.182 2°48.588 303.3 5.9 295.5 8.5
2001-05-11 11:42:19 51°12.186 2°48.577 308 5.6 298.5 8.6
2001-05-11 11:42:24 51°12.19 2°48.568 312.3 5.3 302.1 8.7
2001-05-11 11:42:29 51°12.194 2°48.559 315.7 4.9 305 8.8
2001-05-11 11:42:34 51°12.198 2°48.55 318.5 4.6 305.8 8.8
2001-05-11 11:42:39 51°12.201 2°48.542 320.5 4.4 305.7 8.9
2001-05-11 11:42:44 51°12.204 2°48.534 321.8 4.3 303.9 9
2001-05-11 11:42:49 51°12.208 2°48.527 322.7 4.1 303.8 9
2001-05-11 11:42:54 51°12.211 2°48.52 323.7 3.8 305.8 9
2001-05-11 11:42:59 51°12.214 2°48.513 324.5 3.7 304.9 9
2001-05-11 11:43:04 51°12.217 2°48.507 325.5 3.5 306 9.1
2001-05-11 11:43:09 51°12.219 2°48.5 326.5 3.3 306.3 9.1
2001-05-11 11:43:14 51°12.222 2°48.494 327.5 3.3 303.1 9.2
2001-05-11 11:43:19 51°12.224 2°48.488 328.2 3.2 304.2 9.2
2001-05-11 11:43:24 51°12.227 2°48.483 329 3.2 302.1 9.2
2001-05-11 11:43:29 51°12.23 2°48.478 329.7 3 301.5 9.2
2001-05-11 11:43:34 51°12.231 2°48.472 330.5 2.9 302.3 9.4
2001-05-11 11:43:39 51°12.233 2°48.466 331.2 2.8 301.4 9.4
2001-05-11 11:43:44 51°12.235 2°48.461 331.8 2.7 302.4 9.3
2001-05-11 11:43:49 51°12.237 2°48.456 332.5 2.6 301.4 9.4
2001-05-11 11:43:54 51°12.239 2°48.452 333 2.5 301.4 9.3
2001-05-11 11:43:59 51°12.241 2°48.447 333.5 2.5 299.7 9.3
2001-05-11 11:44:04 51°12.242 2°48.442 334 2.4 299.2 9.4
2001-05-11 11:44:09 51°12.244 2°48.437 334.3 2.4 297.7 9.4
2001-05-11 11:44:14 51°12.245 2°48.432 334.7 2.3 297.1 9.3
2001-05-11 11:44:19 51°12.247 2°48.428 335 2.3 298.1 9.4
2001-05-11 11:44:24 51°12.248 2°48.423 335.3 2.4 305.8 9.6
2001-05-11 11:44:29 51°12.25 2°48.419 335.7 2.1 296 9.5
2001-05-11 11:44:34 51°12.251 2°48.415 335.8 2.3 298.2 9.6
2001-05-11 11:44:39 51°12.252 2°48.41 336 2.1 296.3 9.7
2001-05-11 11:44:44 51°12.253 2°48.406 336.2 2.1 292.2 9.7
2001-05-11 11:44:49 51°12.254 2°48.402 336.5 2.1 294.4 9.7
2001-05-11 11:44:54 51°12.256 2°48.398 336.8 2.1 290.7 9.7
2001-05-11 11:44:59 51°12.257 2°48.394 337.2 2.1 295.2 9.7
2001-05-11 11:45:04 51°12.257 2°48.39 337.3 2.2 294.9 9.7
2001-05-11 11:45:09 51°12.258 2°48.386 337.5 1.9 288.8 9.7
2001-05-11 11:45:14 51°12.258 2°48.382 338 1.9 292.1 9.8
2001-05-11 11:45:19 51°12.259 2°48.378 338.2 1.9 285.7 9.8
2001-05-11 11:45:24 51°12.26 2°48.375 338.5 1.7 287.9 9.8
2001-05-11 11:45:29 51°12.261 2°48.371 338.8 1.8 285.3 9.9
2001-05-11 11:45:34 51°12.262 2°48.368 339.2 1.7 287.2 9.9
2001-05-11 11:45:39 51°12.263 2°48.364 339.5 1.7 283.6 9.9
2001-05-11 11:45:44 51°12.263 2°48.36 339.7 1.7 285.9 9.9
2001-05-11 11:45:49 51°12.264 2°48.357 340 1.6 284.3 9.9
2001-05-11 11:45:54 51°12.264 2°48.353 340 1.6 284.4 10
2001-05-11 11:45:59 51°12.265 2°48.35 340.3 1.6 285.5 10
2001-05-11 11:46:04 51°12.265 2°48.347 340.3 1.7 281.7 10
2001-05-11 11:46:09 51°12.266 2°48.343 340.5 1.7 279.7 9.9
2001-05-11 11:46:14 51°12.266 2°48.34 340.3 1.7 279.5 9.8
2001-05-11 11:46:19 51°12.266 2°48.336 340.3 1.6 278.3 10
2001-05-11 11:46:24 51°12.266 2°48.333 340.3 1.6 280 10
2001-05-11 11:46:29 51°12.267 2°48.329 340.2 1.6 277.9 10
2001-05-11 11:46:34 51°12.267 2°48.326 340.3 1.5 278.2 10
2001-05-11 11:46:39 51°12.267 2°48.322 340.2 1.6 275.3 10
2001-05-11 11:46:44 51°12.267 2°48.318 340 1.6 278.1 10
2001-05-11 11:46:49 51°12.267 2°48.315 340 1.6 278.8 10
2001-05-11 11:46:54 51°12.267 2°48.312 340 1.6 278.8 10
2001-05-11 11:46:59 51°12.268 2°48.308 339.8 1.5 277.9 10.1
2001-05-11 11:47:04 51°12.268 2°48.305 340.2 1.5 282.4 10.1
2001-05-11 11:47:09 51°12.269 2°48.302 341.3 1.6 295 10.2
2001-05-11 11:47:14 51°12.27 2°48.298 344.2 1.7 304.9 10.2
2001-05-11 11:47:19 51°12.273 2°48.296 349 2.2 326.5 10.2
2001-05-11 11:47:24 51°12.276 2°48.293 356 2.3 334.6 10.2
2001-05-11 11:47:29 51°12.279 2°48.292 3.7 2.4 349 10.2
2001-05-11 11:47:34 51°12.282 2°48.292 11 2.6 1.5 10.3
2001-05-11 11:47:39 51°12.287 2°48.294 19.2 3.2 20.7 10.2
2001-05-11 11:47:44 51°12.291 2°48.297 29 3.8 29.7 10.2
2001-05-11 11:47:49 51°12.296 2°48.304 37.8 4.9 40.9 10.2
2001-05-11 11:47:54 51°12.301 2°48.313 45.2 5.9 47.9 10.1
2001-05-11 11:47:59 51°12.307 2°48.325 49.7 7.3 53.2 10.1
2001-05-11 11:48:04 51°12.313 2°48.34 53.3 8 56.4 10.1
2001-05-11 11:48:09 51°12.319 2°48.356 56.2 9 60.7 10.2
2001-05-11 11:48:14 51°12.325 2°48.375 58.8 9.6 62.5 10.2
2001-05-11 11:48:19 51°12.332 2°48.395 59.7 10.3 62.6 10.2
2001-05-11 11:48:24 51°12.339 2°48.416 60.2 10.7 63.7 10.2
2001-05-11 11:48:29 51°12.346 2°48.437 59.7 11.1 61.1 10.2
2001-05-11 11:48:34 51°12.353 2°48.46 59.7 11.3 63.2 10.2
2001-05-11 11:48:39 51°12.361 2°48.482 59.3 11.6 61.1 10.1
2001-05-11 11:48:44 51°12.368 2°48.505 59.5 11.7 62.8 10
2001-05-11 11:48:49 51°12.376 2°48.528 60.2 11.9 63.3 10.1
2001-05-11 11:48:54 51°12.383 2°48.552 61 11.9 64 10.1
2001-05-11 11:48:59 51°12.39 2°48.576 61.3 12 63.7 10.1
2001-05-11 11:49:04 51°12.398 2°48.6 60.7 12.2 62.8 10
2001-05-11 11:49:09 51°12.406 2°48.623 59.7 12 62.9 10
2001-05-11 11:49:14 51°12.414 2°48.647 60.2 12.1 62.6 10
2001-05-11 11:49:19 51°12.421 2°48.671 59.8 12.1 61.9 10
2001-05-11 11:49:24 51°12.429 2°48.694 59.8 12.1 62.5 10
2001-05-11 11:49:29 51°12.437 2°48.718 60.3 12 62.8 10
2001-05-11 11:49:34 51°12.444 2°48.742 60.8 12.1 63.4 9.9
2001-05-11 11:49:39 51°12.452 2°48.766 60.7 12.2 62.1 9.9
2001-05-11 11:49:44 51°12.46 2°48.79 59.8 12.1 62.1 9.9
2001-05-11 11:49:49 51°12.468 2°48.813 58.7 11.9 60 10
2001-05-11 11:49:54 51°12.476 2°48.835 57.8 11.3 60.3 9.9
2001-05-11 11:49:59 51°12.484 2°48.856 57.7 10.9 59.8 9.6
2001-05-11 11:50:04 51°12.491 2°48.876 57.8 10.7 60.7 9.8
2001-05-11 11:50:09 51°12.498 2°48.896 58.5 10.5 61.3 10
2001-05-11 11:50:14 51°12.505 2°48.917 58.7 10.5 61.9 10
2001-05-11 11:50:19 51°12.512 2°48.937 59 10.6 61.4 10
2001-05-11 11:50:24 51°12.519 2°48.959 58.8 10.9 62.1 10
2001-05-11 11:50:29 51°12.526 2°48.98 59.2 10.9 62.4 9.9
2001-05-11 11:50:34 51°12.533 2°49.001 59.2 11 62.4 9.8
2001-05-11 11:50:39 51°12.541 2°49.023 58.8 11.2 61 10
2001-05-11 11:50:44 51°12.548 2°49.045 58.8 11.4 61.8 9.9
2001-05-11 11:50:49 51°12.556 2°49.068 58.7 11.5 61.1 9.9
2001-05-11 11:50:54 51°12.563 2°49.09 58.8 11.6 62.1 9.9
2001-05-11 11:50:59 51°12.571 2°49.113 59.2 11.7 61.5 9.9
2001-05-11 11:51:04 51°12.578 2°49.136 59 11.7 61.9 9.9
2001-05-11 11:51:09 51°12.586 2°49.159 58.7 11.8 61.7 9.9
2001-05-11 11:51:14 51°12.594 2°49.182 58.7 11.8 62.1 9.9
2001-05-11 11:51:19 51°12.602 2°49.205 58.7 11.8 62 9.9
2001-05-11 11:51:24 51°12.609 2°49.229 58.8 11.9 62.1 9.8
2001-05-11 11:51:29 51°12.617 2°49.252 59 11.9 61.9 9.9
2001-05-11 11:51:34 51°12.624 2°49.275 59.3 11.8 62.6 9.9
2001-05-11 11:51:39 51°12.632 2°49.299 60 12 63.4 9.8
2001-05-11 11:51:44 51°12.639 2°49.322 59.8 12 63.4 9.8
2001-05-11 11:51:49 51°12.647 2°49.346 59.8 12 63.7 9.8
2001-05-11 11:51:54 51°12.654 2°49.369 60.2 11.9 64.2 9.8
2001-05-11 11:51:59 51°12.661 2°49.393 61 11.9 65.7 9.8
2001-05-11 11:52:04 51°12.668 2°49.417 62 11.9 66.2 9.8
2001-05-11 11:52:09 51°12.675 2°49.441 62.8 11.8 67.5 9.7
2001-05-11 11:52:14 51°12.681 2°49.465 63.2 11.9 67.2 9.7
2001-05-11 11:52:19 51°12.688 2°49.489 62.2 11.9 65 9.7
2001-05-11 11:52:24 51°12.695 2°49.513 60.5 11.9 64.2 9.7
2001-05-11 11:52:29 51°12.703 2°49.536 59.7 11.7 62.9 9.7
2001-05-11 11:52:34 51°12.71 2°49.559 59.2 11.7 62.6 9.7
2001-05-11 11:52:39 51°12.718 2°49.582 59.7 11.8 63.2 9.6
2001-05-11 11:52:44 51°12.725 2°49.606 60.3 11.8 64.3 9.6
2001-05-11 11:52:49 51°12.732 2°49.629 60.3 11.7 62 9.6
2001-05-11 11:52:54 51°12.74 2°49.652 60.2 11.7 63.4 9.7
2001-05-11 11:52:59 51°12.747 2°49.675 59.3 11.6 62.2 9.6
2001-05-11 11:53:04 51°12.755 2°49.698 59.5 11.7 63.3 9.6
2001-05-11 11:53:09 51°12.762 2°49.72 59.2 11.6 61.9 9.6
2001-05-11 11:53:14 51°12.769 2°49.743 59.5 11.5 63.2 9.6
2001-05-11 11:53:19 51°12.776 2°49.765 59.7 11.5 62.7 9.6
2001-05-11 11:53:24 51°12.784 2°49.788 59.3 11.4 62.7 9.5
2001-05-11 11:53:29 51°12.791 2°49.81 59.5 11.3 62.6 9.6
2001-05-11 11:53:34 51°12.798 2°49.832 59.7 11.4 62.7 9.6
2001-05-11 11:53:39 51°12.806 2°49.854 59.7 11.4 62.7 9.6
2001-05-11 11:53:44 51°12.813 2°49.877 60 11.4 62.9 9.5
2001-05-11 11:53:49 51°12.82 2°49.899 59.5 11.3 61.8 9.6
2001-05-11 11:53:54 51°12.827 2°49.921 59 11.2 62.6 9.6
2001-05-11 11:53:59 51°12.834 2°49.944 60.8 11.4 65.5 9.6
2001-05-11 11:54:04 51°12.84 2°49.967 62.8 11.4 67 9.5
2001-05-11 11:54:09 51°12.846 2°49.99 64 11.4 66.6 9.4
2001-05-11 11:54:14 51°12.853 2°50.013 62.2 11.3 63.7 9.5
2001-05-11 11:54:19 51°12.86 2°50.035 59.7 11.2 61.8 9.4
2001-05-11 11:54:24 51°12.867 2°50.057 58.8 11.2 63 9.4
2001-05-11 11:54:29 51°12.874 2°50.079 59.5 11.3 63.4 9.4
2001-05-11 11:54:34 51°12.881 2°50.101 60.2 11.3 64.1 9.4
2001-05-11 11:54:39 51°12.888 2°50.124 60 11.3 63.9 9.4
2001-05-11 11:54:45 51°12.897 2°50.151 60 11.4 64.1 9.3
2001-05-11 11:54:49 51°12.902 2°50.169 60 11.4 64.3 9.4
2001-05-11 11:54:55 51°12.911 2°50.195 60.3 11.4 64.1 9.4
2001-05-11 11:54:59 51°12.917 2°50.213 60 11.3 62.8 9.3
2001-05-11 11:55:04 51°12.924 2°50.236 59.8 11.4 63.1 9.3
2001-05-11 11:55:09 51°12.931 2°50.258 59.5 11.3 62.6 9.3
2001-05-11 11:55:14 51°12.938 2°50.281 60.2 11.3 64.4 9.3
2001-05-11 11:55:19 51°12.945 2°50.304 61.2 11.6 64.6 9.3
2001-05-11 11:55:25 51°12.953 2°50.33 61 11.4 64.7 9.3
2001-05-11 11:55:29 51°12.959 2°50.348 60.3 11.4 63.1 9.3
2001-05-11 11:55:34 51°12.966 2°50.37 59.8 11.5 63.3 9.3
2001-05-11 11:55:39 51°12.973 2°50.393 60 11.4 63.7 9.3
2001-05-11 11:55:45 51°12.982 2°50.419 60.3 11.4 63.7 9.3
2001-05-11 11:55:49 51°12.988 2°50.437 60.8 11.4 63.6 9.3
2001-05-11 11:55:55 51°12.997 2°50.464 59.8 11.4 62.1 9.3
2001-05-11 11:55:59 51°13.003 2°50.482 58.7 11.4 60.9 9.2
2001-05-11 11:56:05 51°13.012 2°50.509 58 11.3 61.9 9.2
2001-05-11 11:56:09 51°13.018 2°50.527 59.3 11.4 63.8 9.2
2001-05-11 11:56:14 51°13.024 2°50.55 60.5 11.4 63.9 9.2
2001-05-11 11:56:19 51°13.032 2°50.573 61 11.4 65.4 9.2
2001-05-11 11:56:25 51°13.04 2°50.6 60.3 11.5 62.5 9.1
2001-05-11 11:56:29 51°13.046 2°50.618 59.8 11.4 63 9.1
2001-05-11 11:56:34 51°13.053 2°50.64 59.2 11.5 60.8 9.1
2001-05-11 11:56:39 51°13.06 2°50.663 58.7 11.3 62.3 9.1
2001-05-11 11:56:45 51°13.069 2°50.69 59 11.3 62.9 9.1
2001-05-11 11:56:49 51°13.074 2°50.708 59.5 11.4 63.1 9.2
2001-05-11 11:56:54 51°13.081 2°50.731 59.8 11.4 64 9.1
2001-05-11 11:56:59 51°13.089 2°50.753 59.5 11.4 62.2 9.1
2001-05-11 11:57:04 51°13.096 2°50.776 59.5 11.5 63.6 9.1
2001-05-11 11:57:09 51°13.103 2°50.798 60.2 11.5 63.3 9.1
2001-05-11 11:57:14 51°13.11 2°50.821 59.8 11.5 63.7 9.1
2001-05-11 11:57:19 51°13.118 2°50.843 59.3 11.4 63.9 9.1
2001-05-11 11:57:25 51°13.126 2°50.871 59.7 11.5 63.9 9.1
2001-05-11 11:57:29 51°13.132 2°50.889 60.5 11.6 63.5 9.1
2001-05-11 11:57:34 51°13.139 2°50.912 60 11.6 64.2 9
2001-05-11 11:57:39 51°13.146 2°50.935 59.8 11.5 63.5 9
2001-05-11 11:57:45 51°13.155 2°50.962 59.8 11.6 63.2 9.1
2001-05-11 11:57:49 51°13.161 2°50.98 59.7 11.5 61.9 9
2001-05-11 11:57:55 51°13.17 2°51.007 59.5 11.5 62.9 8.8
2001-05-11 11:57:59 51°13.175 2°51.026 59.5 11.4 62.1 9
2001-05-11 11:58:05 51°13.184 2°51.053 59.3 11.5 62.7 9
2001-05-11 11:58:09 51°13.19 2°51.07 59.3 11.5 61.8 9
2001-05-11 11:58:15 51°13.199 2°51.098 59.2 11.5 63.1 8.9
2001-05-11 11:58:19 51°13.205 2°51.116 59.7 11.5 62.9 9.1
2001-05-11 11:58:25 51°13.214 2°51.143 59.8 11.6 63.3 9.1
2001-05-11 11:58:29 51°13.219 2°51.162 60.3 11.6 63.8 9.1
2001-05-11 11:58:35 51°13.227 2°51.19 60.8 11.6 64.6 9
2001-05-11 11:58:39 51°13.233 2°51.208 60.8 11.6 64.4 9
2001-05-11 11:58:45 51°13.241 2°51.236 61 11.7 64.4 9.1
2001-05-11 11:58:49 51°13.247 2°51.255 60.3 11.5 63.1 8.9
2001-05-11 11:58:54 51°13.254 2°51.278 59.7 11.6 62.9 8.9
2001-05-11 11:58:59 51°13.261 2°51.3 59.5 11.7 62.5 8.9
2001-05-11 11:59:05 51°13.27 2°51.327 59.3 11.5 62.2 8.8
2001-05-11 11:59:09 51°13.276 2°51.345 58.5 11.7 61.5 8.7
2001-05-11 11:59:14 51°13.284 2°51.367 58 11.6 61.6 8.7
2001-05-11 11:59:19 51°13.292 2°51.39 58 11.4 61.1 8.9
2001-05-11 11:59:25 51°13.301 2°51.417 58.2 11.6 62.9 8.8
2001-05-11 11:59:29 51°13.307 2°51.435 58.8 11.7 62.3 8.7
2001-05-11 11:59:34 51°13.314 2°51.458 59 11.7 62.1 8.7
2001-05-11 11:59:39 51°13.322 2°51.481 58.8 11.7 62.2 8.9
2001-05-11 11:59:45 51°13.331 2°51.508 59 11.6 63 8.8
2001-05-11 11:59:49 51°13.337 2°51.526 59 11.6 63.3 8.7
2001-05-11 11:59:55 51°13.345 2°51.554 59.7 11.7 63.1 8.8
2001-05-11 11:59:59 51°13.351 2°51.572 59.5 11.6 62.6 8.8
2001-05-11 12:00:05 51°13.36 2°51.6 59.3 11.7 62.9 8.8
2001-05-11 12:00:09 51°13.366 2°51.618 59.2 11.7 62.4 8.8
2001-05-11 12:00:15 51°13.375 2°51.645 59 11.7 62.8 8.8
2001-05-11 12:00:19 51°13.381 2°51.663 58.7 11.6 62.7 8.8
2001-05-11 12:00:24 51°13.389 2°51.685 59.2 11.6 63.5 8.8
2001-05-11 12:00:29 51°13.396 2°51.709 60.2 11.7 64.4 8.8
2001-05-11 12:00:35 51°13.405 2°51.737 60.8 11.7 64.1 8.8
2001-05-11 12:00:39 51°13.41 2°51.755 59.8 11.7 62.4 8.8
2001-05-11 12:00:45 51°13.42 2°51.782 58.7 11.7 62 8.8
2001-05-11 12:00:49 51°13.425 2°51.801 58.3 11.6 61.7 8.8
2001-05-11 12:00:54 51°13.432 2°51.823 58.7 11.7 62.9 8.8
2001-05-11 12:00:59 51°13.44 2°51.847 59.3 11.7 63.6 8.8
2001-05-11 12:01:05 51°13.448 2°51.875 60.5 11.7 65 8.8
2001-05-11 12:01:09 51°13.453 2°51.894 61.7 11.6 65.8 8.9
2001-05-11 12:01:14 51°13.46 2°51.918 62.5 11.8 66.2 8.8
2001-05-11 12:01:19 51°13.467 2°51.941 61.3 11.7 63.3 8.8
2001-05-11 12:01:25 51°13.476 2°51.968 59.3 11.6 62.3 8.7
2001-05-11 12:01:29 51°13.482 2°51.987 59.5 11.8 64.5 8.7
2001-05-11 12:01:34 51°13.489 2°52.01 60.7 11.9 64.3 8.8
2001-05-11 12:01:39 51°13.496 2°52.035 61.2 12 63.9 8.8
2001-05-11 12:01:45 51°13.505 2°52.064 61 12.1 64.1 8.9
2001-05-11 12:01:49 51°13.511 2°52.083 60.2 12.1 63.1 8.8
2001-05-11 12:01:54 51°13.518 2°52.107 60.5 12.2 64.6 8.8
2001-05-11 12:02:00 51°13.527 2°52.136 60.3 12.3 63.2 8.8
2001-05-11 12:02:05 51°13.535 2°52.16 60 12.3 63.4 8.5
2001-05-11 12:02:09 51°13.541 2°52.18 60.2 12.3 64.6 8.7
2001-05-11 12:02:15 51°13.549 2°52.209 60.8 12.3 64.2 8.7
2001-05-11 12:02:19 51°13.556 2°52.229 60.3 12.3 63.1 8.5
2001-05-11 12:02:24 51°13.563 2°52.253 59.5 12.4 62.6 8.5
2001-05-11 12:02:29 51°13.571 2°52.277 59.7 12.2 62.6 8.6
2001-05-11 12:02:34 51°13.579 2°52.301 59.8 12.3 64.6 8.5
2001-05-11 12:02:40 51°13.588 2°52.33 59.7 12.3 62 8.5
2001-05-11 12:02:44 51°13.595 2°52.349 59.2 12.3 62.9 8.6
2001-05-11 12:02:49 51°13.603 2°52.374 59.2 12.4 62.3 8.5
2001-05-11 12:02:54 51°13.61 2°52.398 59.3 12.4 63 8.6
2001-05-11 12:02:59 51°13.618 2°52.422 59.8 12.4 63.9 8.6
2001-05-11 12:03:05 51°13.627 2°52.452 59.5 12.4 63.6 8.6
2001-05-11 12:03:09 51°13.633 2°52.472 60.2 12.4 65 8.5
2001-05-11 12:03:15 51°13.642 2°52.501 61.8 12.5 65.8 8.6
2001-05-11 12:03:19 51°13.648 2°52.521 61.3 12.4 64 8.5
2001-05-11 12:03:24 51°13.656 2°52.545 60.3 12.5 62.9 8.6
2001-05-11 12:03:29 51°13.664 2°52.57 59 12.5 61 8.6
2001-05-11 12:03:35 51°13.675 2°52.598 57.3 12.4 58.3 8.4
2001-05-11 12:03:40 51°13.684 2°52.621 55.8 12.4 58.1 8.3
2001-05-11 12:03:45 51°13.693 2°52.645 55.3 12.4 57.4 8.4
2001-05-11 12:03:49 51°13.701 2°52.663 54.7 12.3 57 7.9
2001-05-11 12:03:55 51°13.712 2°52.69 54.3 12.5 57.7 8.4
2001-05-11 12:03:59 51°13.719 2°52.709 55.2 12.6 57.6 8.3
2001-05-11 12:04:04 51°13.728 2°52.733 56 12.7 58.7 8.4
2001-05-11 12:04:09 51°13.738 2°52.756 54.2 12.6 56 8.3
2001-05-11 12:04:15 51°13.749 2°52.784 53.8 12.5 57.2 8.2
2001-05-11 12:04:19 51°13.756 2°52.803 55 12.6 58.4 8.2
2001-05-11 12:04:25 51°13.768 2°52.832 55.3 12.5 58.3 8.2
2001-05-11 12:04:29 51°13.775 2°52.851 55.5 12.6 57.8 8.3
2001-05-11 12:04:35 51°13.787 2°52.879 55 12.7 57.4 8.2
2001-05-11 12:04:40 51°13.796 2°52.902 54 12.5 56.3 8.2
2001-05-11 12:04:44 51°13.804 2°52.921 53.8 12.7 57.9 8.2
2001-05-11 12:04:49 51°13.813 2°52.944 54.8 12.8 57.6 7.9
2001-05-11 12:04:54 51°13.823 2°52.968 55 12.7 57.6 8.1
2001-05-11 12:04:59 51°13.832 2°52.991 54.2 12.7 56.2 8.1
2001-05-11 12:05:04 51°13.842 2°53.014 53.8 12.7 57.3 8.1
2001-05-11 12:05:09 51°13.851 2°53.038 54.7 12.7 57.6 8.1
2001-05-11 12:05:15 51°13.863 2°53.067 55 12.8 57.8 8
2001-05-11 12:05:19 51°13.87 2°53.086 54.7 12.7 58.1 8.1
2001-05-11 12:05:25 51°13.882 2°53.114 54.8 12.7 57.1 8
2001-05-11 12:05:29 51°13.889 2°53.134 55.2 12.7 58.4 8
2001-05-11 12:05:34 51°13.898 2°53.157 55.2 12.7 57.1 8
2001-05-11 12:05:39 51°13.908 2°53.181 55 12.8 58.5 7.9
2001-05-11 12:05:45 51°13.92 2°53.21 55.2 12.8 57.8 8
2001-05-11 12:05:50 51°13.929 2°53.234 55 12.8 58 8
2001-05-11 12:05:54 51°13.937 2°53.253 54 12.7 56 7.9
2001-05-11 12:05:59 51°13.946 2°53.276 53.8 12.7 58.6 7.9
2001-05-11 12:06:05 51°13.958 2°53.305 55.2 12.8 58.2 7.8
2001-05-11 12:06:09 51°13.965 2°53.324 55.3 12.7 58.4 7.8
2001-05-11 12:06:14 51°13.975 2°53.348 54.8 12.8 56.8 7.8
2001-05-11 12:06:19 51°13.984 2°53.372 54.7 12.8 57 7.8
2001-05-11 12:06:25 51°13.996 2°53.4 54.3 12.7 57.9 7.8
2001-05-11 12:06:29 51°14.003 2°53.419 55 12.8 57.8 7.8
2001-05-11 12:06:34 51°14.013 2°53.443 55.5 12.8 57.5 7.8
2001-05-11 12:06:39 51°14.023 2°53.467 54.5 12.9 55.6 7.8
2001-05-11 12:06:44 51°14.032 2°53.491 53.5 12.9 55.4 7.9
2001-05-11 12:06:50 51°14.044 2°53.519 53.7 12.8 57.4 7.8
2001-05-11 12:06:55 51°14.053 2°53.543 54.2 12.9 57.5 7.8
2001-05-11 12:06:59 51°14.061 2°53.563 55.5 12.9 58.7 7.9
2001-05-11 12:07:04 51°14.07 2°53.587 56.3 13 58.6 7.7
2001-05-11 12:07:09 51°14.08 2°53.611 55.5 12.8 57.8 7.7
2001-05-11 12:07:15 51°14.091 2°53.64 54.8 12.8 57.1 7.7
2001-05-11 12:07:19 51°14.099 2°53.659 54.5 12.9 57.1 7.8
2001-05-11 12:07:25 51°14.111 2°53.688 54.5 12.8 57.7 7.8
2001-05-11 12:07:29 51°14.118 2°53.707 54.5 12.8 57.7 7.7
2001-05-11 12:07:35 51°14.129 2°53.737 56 12.8 59.5 7.7
2001-05-11 12:07:39 51°14.136 2°53.756 57.2 12.8 59.3 7.7
2001-05-11 12:07:45 51°14.147 2°53.785 56.5 12.9 58.6 7.7
2001-05-11 12:07:49 51°14.155 2°53.805 55.7 12.9 57.8 7.6
2001-05-11 12:07:55 51°14.167 2°53.833 54.8 12.8 57.3 7.6
2001-05-11 12:08:00 51°14.176 2°53.857 54.8 13 57.9 7.6
2001-05-11 12:08:04 51°14.184 2°53.877 55.3 12.8 57.1 7.5
2001-05-11 12:08:09 51°14.193 2°53.901 55 12.9 57.7 7.6
2001-05-11 12:08:15 51°14.205 2°53.929 54.3 12.9 57.3 7.5
2001-05-11 12:08:19 51°14.212 2°53.949 55.3 12.9 58.4 7.6
2001-05-11 12:08:24 51°14.222 2°53.973 54.8 12.9 57.3 7.6
2001-05-11 12:08:29 51°14.232 2°53.997 54.8 13 57.8 7.6
2001-05-11 12:08:35 51°14.243 2°54.026 54.8 12.9 57.9 7.6
2001-05-11 12:08:40 51°14.253 2°54.05 54.3 12.8 57.9 7.6
2001-05-11 12:08:45 51°14.262 2°54.075 54.8 12.9 58.5 7.6
2001-05-11 12:08:50 51°14.271 2°54.099 55.7 12.9 58.8 7.7
2001-05-11 12:08:55 51°14.281 2°54.123 55.5 12.9 57.9 7.6
2001-05-11 12:08:59 51°14.288 2°54.143 55 12.9 58.6 7.6
2001-05-11 12:09:05 51°14.299 2°54.172 56 12.9 60 7.7
2001-05-11 12:09:10 51°14.308 2°54.197 56.7 12.9 59 7.7
2001-05-11 12:09:14 51°14.315 2°54.217 57.3 12.9 60.8 7.7
2001-05-11 12:09:19 51°14.324 2°54.241 56.8 12.9 57.7 7.7
2001-05-11 12:09:24 51°14.334 2°54.266 55.8 12.9 59.6 7.8
2001-05-11 12:09:29 51°14.343 2°54.29 55.7 13 57.8 7.8
2001-05-11 12:09:34 51°14.353 2°54.315 55.3 13 58.5 7.7
2001-05-11 12:09:40 51°14.364 2°54.344 55.2 12.9 57.4 7.7
2001-05-11 12:09:45 51°14.373 2°54.369 56 13 61.1 7.9
2001-05-11 12:09:50 51°14.382 2°54.393 56.7 13 58 7.9
2001-05-11 12:09:54 51°14.39 2°54.413 56.5 13.1 59.4 7.9
2001-05-11 12:09:59 51°14.4 2°54.437 54.8 13 55.8 8
2001-05-11 12:10:05 51°14.411 2°54.466 54.7 13.1 58.4 8
2001-05-11 12:10:09 51°14.419 2°54.485 55 13 57.2 8.1
2001-05-11 12:10:14 51°14.429 2°54.51 55.2 13.1 59.1 8.4
2001-05-11 12:10:19 51°14.438 2°54.535 55.7 12.9 59.6 8.3
2001-05-11 12:10:25 51°14.447 2°54.565 58.3 12.9 64.6 8.5
2001-05-11 12:10:30 51°14.454 2°54.592 62.8 12.9 69 8.7
2001-05-11 12:10:34 51°14.458 2°54.614 67.2 13 72.7 8.7
2001-05-11 12:10:39 51°14.464 2°54.641 69.2 13 72.1 8.8
2001-05-11 12:10:45 51°14.469 2°54.674 70.5 13 74.9 8.8
2001-05-11 12:10:49 51°14.473 2°54.697 71.3 13.1 75.4 8.7
2001-05-11 12:10:55 51°14.479 2°54.73 71.8 13 75.7 8.7
2001-05-11 12:10:59 51°14.482 2°54.752 73 12.9 79.4 8.7
2001-05-11 12:11:05 51°14.485 2°54.786 75.5 12.7 81.9 8.7
2001-05-11 12:11:10 51°14.486 2°54.813 79.7 12.2 88.6 8.6
2001-05-11 12:11:15 51°14.485 2°54.84 85.8 12.1 93.1 8.6
2001-05-11 12:11:19 51°14.483 2°54.861 90.7 11.9 98.1 8.6
2001-05-11 12:11:25 51°14.48 2°54.891 94.3 11.7 99.6 8.6
2001-05-11 12:11:29 51°14.477 2°54.911 97 11.5 103.2 8.7
2001-05-11 12:11:35 51°14.472 2°54.941 99.8 11.5 105.5 8.7
2001-05-11 12:11:40 51°14.466 2°54.964 103.3 11.5 110.2 8.7
2001-05-11 12:11:45 51°14.461 2°54.988 105.2 11.2 109.8 8.8
2001-05-11 12:11:49 51°14.457 2°55.007 106.8 11.3 114.4 8.8
2001-05-11 12:11:55 51°14.448 2°55.033 109.7 11 115.9 8.8
2001-05-11 12:11:59 51°14.442 2°55.049 112.8 10.5 120.1 8.8
2001-05-11 12:12:04 51°14.434 2°55.068 116.2 10.2 120.9 8.8
2001-05-11 12:12:09 51°14.427 2°55.086 118.3 9.9 123.8 8.9
2001-05-11 12:12:14 51°14.419 2°55.104 118.5 9.6 121.2 8.9
2001-05-11 12:12:19 51°14.412 2°55.121 119.3 9.3 125.6 9
2001-05-11 12:12:25 51°14.403 2°55.141 120.3 9 124.4 8.9
2001-05-11 12:12:29 51°14.397 2°55.154 121.3 8.8 127.7 8.9
2001-05-11 12:12:35 51°14.389 2°55.172 123.7 8.7 128 8.9
2001-05-11 12:12:39 51°14.382 2°55.184 125.2 8.4 130.3 8.9
2001-05-11 12:12:44 51°14.375 2°55.198 126.7 8.3 130.4 8.9
2001-05-11 12:12:50 51°14.366 2°55.214 127.5 8.1 132.3 8.9
2001-05-11 12:12:55 51°14.358 2°55.227 127.7 7.9 131.8 8.9
2001-05-11 12:12:59 51°14.352 2°55.237 128 7.8 132 8.9
2001-05-11 12:13:04 51°14.345 2°55.25 128.2 7.6 132.5 8.8
2001-05-11 12:13:09 51°14.338 2°55.262 128.5 7.5 132.2 8.8
2001-05-11 12:13:14 51°14.332 2°55.274 128.7 7.3 133 8.8
2001-05-11 12:13:19 51°14.325 2°55.285 128.8 7.2 132.3 8.8
2001-05-11 12:13:24 51°14.318 2°55.297 128.3 7.1 132.6 8.7
2001-05-11 12:13:30 51°14.31 2°55.31 128.2 7 132.2 8.7
2001-05-11 12:13:34 51°14.305 2°55.319 128.2 6.8 131.9 8.6
2001-05-11 12:13:39 51°14.299 2°55.331 128.2 6.7 132 8.7
2001-05-11 12:13:45 51°14.291 2°55.344 128.3 6.6 132.5 -999
2001-05-11 12:13:50 51°14.285 2°55.354 129.2 6.6 134.2 -999
2001-05-11 12:13:55 51°14.278 2°55.364 130.7 6.5 134.8 -999
2001-05-11 12:14:00 51°14.272 2°55.374 131.3 6.7 135 -999
2001-05-11 12:14:05 51°14.265 2°55.385 130.3 6.6 133.3 -999
2001-05-11 12:14:10 51°14.259 2°55.396 129.8 6.5 133.7 -999
2001-05-11 12:14:15 51°14.253 2°55.406 130 6.4 133.5 -999
2001-05-11 12:14:20 51°14.247 2°55.416 130.7 6.4 135.5 -999
2001-05-11 12:14:25 51°14.24 2°55.425 132 6.3 136.4 -999
2001-05-11 12:14:30 51°14.234 2°55.434 133.5 6.2 138.4 -999
2001-05-11 12:14:35 51°14.227 2°55.443 135.2 6.2 139.7 -999
2001-05-11 12:14:40 51°14.221 2°55.452 137 6.1 141.3 -999
2001-05-11 12:14:45 51°14.213 2°55.459 138.8 6 143.8 -999
2001-05-11 12:14:50 51°14.206 2°55.466 141.2 6 146 -999
2001-05-11 12:14:55 51°14.199 2°55.473 143.3 5.9 148.4 -999
2001-05-11 12:15:00 51°14.192 2°55.48 145.7 5.8 151.1 -999
2001-05-11 12:15:05 51°14.186 2°55.486 147.7 5.8 152.4 -999
2001-05-11 12:15:10 51°14.179 2°55.491 149.5 5.7 154.1 -999
2001-05-11 12:15:15 51°14.172 2°55.497 151 5.7 154.7 -999
2001-05-11 12:15:20 51°14.164 2°55.502 152 5.6 156.2 -999
2001-05-11 12:15:25 51°14.158 2°55.507 152.7 5.4 156.2 -999
2001-05-11 12:15:30 51°14.151 2°55.512 153 5.3 156.8 -999
2001-05-11 12:15:35 51°14.144 2°55.516 153.2 5.2 156.3 -999
2001-05-11 12:15:40 51°14.138 2°55.521 152.8 5.2 156.1 -999
2001-05-11 12:15:45 51°14.13 2°55.526 151.7 5.8 155.3 -999
2001-05-11 12:15:50 51°14.122 2°55.531 149.5 6 153.4 -999
2001-05-11 12:15:55 51°14.115 2°55.538 148.2 6.2 153.5 -999
2001-05-11 12:16:00 51°14.108 2°55.544 147.8 6.3 153.1 -999
2001-05-11 12:16:05 51°14.1 2°55.551 148 6.4 153.9 -999
2001-05-11 12:16:10 51°14.092 2°55.557 148 6.5 152.8 -999
2001-05-11 12:16:15 51°14.084 2°55.564 147.5 6.5 153.2 -999
2001-05-11 12:16:20 51°14.076 2°55.571 147.7 6.6 153.1 -999
2001-05-11 12:16:25 51°14.068 2°55.578 147.8 6.7 152.5 -999
2001-05-11 12:16:29 51°14.062 2°55.583 147.8 6.7 152.7 8.7
2001-05-11 12:16:34 51°14.054 2°55.59 148 6.8 152.9 8.7
2001-05-11 12:16:39 51°14.045 2°55.597 148.3 6.9 153.7 8.7
2001-05-11 12:16:44 51°14.036 2°55.603 149 6.9 153.7 8.6
2001-05-11 12:16:49 51°14.027 2°55.61 149.8 7 155.1 8.6
2001-05-11 12:16:55 51°14.017 2°55.618 150.3 7 154.6 -999
2001-05-11 12:17:00 51°14.008 2°55.625 150.7 7.1 154.8 -999
2001-05-11 12:17:05 51°13.999 2°55.631 151.3 7.1 154.5 8.6
2001-05-11 12:17:09 51°13.992 2°55.637 152 6.8 154.4 8.7
2001-05-11 12:17:14 51°13.984 2°55.643 152.8 6.6 155 8.7
2001-05-11 12:17:20 51°13.975 2°55.65 153.3 6.3 155 -999
2001-05-11 12:17:25 51°13.967 2°55.655 154.2 6 156.5 -999
2001-05-11 12:17:30 51°13.96 2°55.66 155.2 5.8 156.7 -999
2001-05-11 12:17:35 51°13.952 2°55.665 155.7 5.5 157.6 -999
2001-05-11 12:17:40 51°13.945 2°55.669 155.8 5.3 157.5 -999
2001-05-11 12:17:45 51°13.939 2°55.674 155.7 5.2 157.3 8.5
2001-05-11 12:17:49 51°13.933 2°55.677 155.5 5 156.4 8.6
2001-05-11 12:17:54 51°13.927 2°55.681 155.2 4.8 157.4 8.6
2001-05-11 12:18:00 51°13.92 2°55.686 155 4.6 157.5 8.7
2001-05-11 12:18:05 51°13.914 2°55.69 155.2 4.5 158.3 8.7
2001-05-11 12:18:10 51°13.909 2°55.694 155.2 4.4 157.9 -999
2001-05-11 12:18:15 51°13.903 2°55.697 154.8 4.2 157.8 -999
2001-05-11 12:18:20 51°13.898 2°55.701 154.5 4.1 157.9 -999
2001-05-11 12:18:25 51°13.893 2°55.704 154.3 4 159 -999
2001-05-11 12:18:29 51°13.889 2°55.707 154.2 3.9 158.7 9
2001-05-11 12:18:34 51°13.885 2°55.71 154 3.8 158 9
2001-05-11 12:18:40 51°13.879 2°55.713 153.7 3.7 158 9.1
2001-05-11 12:18:45 51°13.875 2°55.716 153 3.6 157.6 9
2001-05-11 12:18:49 51°13.871 2°55.719 152 3.5 156 9
2001-05-11 12:18:54 51°13.866 2°55.722 150.7 3.5 155.7 8.7
2001-05-11 12:18:59 51°13.862 2°55.725 149.5 3.4 153.5 9.1
2001-05-11 12:19:04 51°13.858 2°55.729 148 3.3 152.2 9.1
2001-05-11 12:19:09 51°13.854 2°55.732 146.5 3.2 150.6 9.1
2001-05-11 12:19:14 51°13.851 2°55.736 145 3.1 149.4 9.1
2001-05-11 12:19:19 51°13.847 2°55.739 143.5 3.1 148 9.2
2001-05-11 12:19:24 51°13.843 2°55.743 142.2 3 147.3 9.2
2001-05-11 12:19:29 51°13.84 2°55.747 141 2.9 145.3 9.1
2001-05-11 12:19:34 51°13.837 2°55.75 139.8 2.8 145.1 9.2
2001-05-11 12:19:40 51°13.833 2°55.754 138.8 2.8 144.1 9.2
2001-05-11 12:19:45 51°13.829 2°55.758 137.8 2.7 143.3 -999
2001-05-11 12:19:50 51°13.827 2°55.762 136.8 2.7 141.4 9.2
2001-05-11 12:19:55 51°13.824 2°55.766 135.7 2.7 140.6 -999
2001-05-11 12:19:59 51°13.822 2°55.769 134.7 2.6 138.7 9.3
2001-05-11 12:20:04 51°13.819 2°55.773 133.8 2.6 138.2 9.2
2001-05-11 12:20:09 51°13.817 2°55.776 133 2.5 137.8 9.1
2001-05-11 12:20:14 51°13.814 2°55.78 132.2 2.5 136.6 9.3
2001-05-11 12:20:19 51°13.812 2°55.784 131.5 2.5 136.2 9.5
2001-05-11 12:20:25 51°13.809 2°55.789 131 2.4 135.4 9.5
2001-05-11 12:20:29 51°13.807 2°55.792 130.5 2.4 134.3 9.5
2001-05-11 12:20:34 51°13.804 2°55.795 130 2.4 133.5 9.4
2001-05-11 12:20:39 51°13.802 2°55.799 129.5 2.4 133.4 9.2
2001-05-11 12:20:44 51°13.8 2°55.803 129 2.4 132.5 9.1
2001-05-11 12:20:49 51°13.798 2°55.807 128.2 2.4 131 9.2
2001-05-11 12:20:55 51°13.795 2°55.812 127.5 2.3 130.2 9.1
2001-05-11 12:21:00 51°13.793 2°55.816 126.7 2.3 128.4 9.3
2001-05-11 12:21:04 51°13.792 2°55.819 125.8 2.3 128.3 9.2
2001-05-11 12:21:10 51°13.79 2°55.824 125 2.3 126.3 -999
2001-05-11 12:21:14 51°13.788 2°55.827 124.3 2.3 126.7 9.4
2001-05-11 12:21:19 51°13.786 2°55.831 123.7 2.2 125.8 9.5
2001-05-11 12:21:24 51°13.784 2°55.835 123.3 2.2 125.4 -999
2001-05-11 12:21:30 51°13.782 2°55.84 123.3 2.2 125.6 9.3
2001-05-11 12:21:34 51°13.781 2°55.843 123.5 2.2 125.7 9.4
2001-05-11 12:21:39 51°13.779 2°55.847 123.5 2.2 124.7 9.4
2001-05-11 12:21:44 51°13.777 2°55.851 123.3 2.3 125 9.4
2001-05-11 12:21:49 51°13.776 2°55.855 123.3 2.3 124.6 9.1
2001-05-11 12:21:54 51°13.774 2°55.859 123.5 2.3 125.7 9.4
2001-05-11 12:21:59 51°13.772 2°55.864 123.5 2.3 124.6 9.2
2001-05-11 12:22:04 51°13.77 2°55.868 123.2 2.3 124.4 9.1
2001-05-11 12:22:09 51°13.768 2°55.872 122.3 2.3 122.3 9
2001-05-11 12:22:14 51°13.766 2°55.876 121.2 2.3 121.3 8.9
2001-05-11 12:22:19 51°13.765 2°55.881 119.8 2.3 121.3 8.8
2001-05-11 12:22:24 51°13.763 2°55.885 118.5 2.3 118.9 8.7
2001-05-11 12:22:29 51°13.762 2°55.89 117.3 2.3 118.2 8.6
2001-05-11 12:22:34 51°13.76 2°55.894 116.2 2.3 118.1 8.5
2001-05-11 12:22:39 51°13.759 2°55.898 115.3 2.2 117.8 8.5
2001-05-11 12:22:44 51°13.757 2°55.903 114.8 2.3 117.7 8.4
2001-05-11 12:22:49 51°13.756 2°55.907 114.8 2.2 116 8.3
2001-05-11 12:22:54 51°13.754 2°55.911 115 2.2 118.1 8.2
2001-05-11 12:22:59 51°13.753 2°55.916 115.2 2.2 117.8 8.2
2001-05-11 12:23:04 51°13.751 2°55.92 115.3 2.1 118.7 8.2
2001-05-11 12:23:09 51°13.75 2°55.924 115.2 2.1 116.8 7.9
2001-05-11 12:23:14 51°13.749 2°55.928 114.8 2.1 118 7.9
2001-05-11 12:23:19 51°13.748 2°55.933 114 2 114.4 8
2001-05-11 12:23:24 51°13.747 2°55.937 112.8 2 115.8 7.9
2001-05-11 12:23:30 51°13.745 2°55.941 111.7 1.9 114.7 7.9
2001-05-11 12:23:34 51°13.744 2°55.944 110.7 1.9 113.5 7.8
2001-05-11 12:23:39 51°13.743 2°55.948 110 1.9 114.3 7.8
2001-05-11 12:23:44 51°13.742 2°55.952 109.3 1.8 113 7.8
2001-05-11 12:23:49 51°13.742 2°55.956 108.8 1.7 112.7 7.5
2001-05-11 12:23:54 51°13.741 2°55.959 108.7 1.7 113.4 7.7
2001-05-11 12:23:59 51°13.74 2°55.963 108.5 1.7 112.9 7.6
2001-05-11 12:24:04 51°13.739 2°55.966 108.3 1.7 114 7.5
2001-05-11 12:24:09 51°13.738 2°55.969 108.3 1.6 113.8 7.4
2001-05-11 12:24:14 51°13.737 2°55.972 108.2 1.6 113.3 -999
2001-05-11 12:24:20 51°13.736 2°55.976 108 1.5 112.7 7.2
2001-05-11 12:24:25 51°13.735 2°55.979 107.7 1.5 113 -999
2001-05-11 12:24:30 51°13.734 2°55.982 107.7 1.7 116.2 6.9
2001-05-11 12:24:35 51°13.733 2°55.986 108.3 1.8 111.7 6.8
2001-05-11 12:24:40 51°13.731 2°55.989 110 1.8 119.4 -999
2001-05-11 12:24:44 51°13.73 2°55.992 111 1.7 113.6 6.5
2001-05-11 12:24:49 51°13.73 2°55.995 112 1.3 120.4 6.5
2001-05-11 12:24:54 51°13.729 2°55.997 113.2 0.9 112.3 6.3
2001-05-11 12:25:00 51°13.729 2°55.998 114.8 0.5 129.7 6.2
2001-05-11 12:25:04 51°13.728 2°55.999 116 0.5 113.7 6.2
2001-05-11 12:25:10 51°13.728 2°56 116.5 0.5 132.8 6.2
2001-05-11 12:25:14 51°13.727 2°56 116.7 0.5 117.9 6.2
2001-05-11 12:25:19 51°13.727 2°56.001 116.5 0.5 138.5 -999
2001-05-11 12:25:25 51°13.726 2°56.002 116.5 0.5 132 5.9
2001-05-11 12:25:29 51°13.726 2°56.003 116.3 0.6 143.5 5.8
2001-05-11 12:25:34 51°13.725 2°56.004 116.3 0.5 127.7 5.9
2001-05-11 12:25:39 51°13.725 2°56.004 116.2 0.4 132.1 5.9
2001-05-11 12:25:45 51°13.725 2°56.005 115.8 0.3 77.8 5.9
2001-05-11 12:25:49 51°13.724 2°56.005 114.5 0.2 103.6 5.9
2001-05-11 12:25:54 51°13.724 2°56.006 112.5 0.2 65.8 5.9
2001-05-11 12:25:59 51°13.724 2°56.006 110.8 0.2 138.8 5.9
2001-05-11 12:26:04 51°13.724 2°56.006 110 0.1 71.2 5.8
2001-05-11 12:26:11 51°13.724 2°56.006 109.5   8 5.9
2001-05-11 12:26:17 51°13.724 2°56.006 109.8   338.4 5.9
2001-05-11 12:26:23 51°13.724 2°56.006 110   21.8 5.9
2001-05-11 12:26:29 51°13.724 2°56.006 110.5   6.3 5.9
2001-05-11 12:26:34 51°13.724 2°56.006 111.3 0.1 332.2 5.9
2001-05-11 12:26:39 51°13.724 2°56.006 112.5 0.1 349.3 5.9
2001-05-11 12:26:44 51°13.724 2°56.006 113.5 0.1 351.2 5.9
2001-05-11 12:26:49 51°13.725 2°56.006 114.8 0.1 359.5 5.9
2001-05-11 12:26:54 51°13.725 2°56.006 116.2 0.1 358.4 5.9
2001-05-11 12:26:59 51°13.726 2°56.006 117.7 0.1 342.4 5.9
2001-05-11 12:27:04 51°13.726 2°56.006 119 0.1 349.6 5.9
2001-05-11 12:27:09 51°13.727 2°56.007 120.3 0.1 351.6 5.9
2001-05-11 12:27:14 51°13.727 2°56.007 121.8 0.1 344 5.9
2001-05-11 12:27:19 51°13.728 2°56.007 123 0.1 336 5.9
2001-05-11 12:27:24 51°13.728 2°56.007 124.3 0.1 11.3 5.9
2001-05-11 12:27:29 51°13.728 2°56.007 124.7 0.1 157.8 5.9
2001-05-11 12:27:34 51°13.729 2°56.008 124   142.7 5.9
2001-05-11 12:27:39 51°13.729 2°56.008 123.8   165.3 5.9
2001-05-11 12:27:44 51°13.729 2°56.008 123.8   278.1 5.9
2001-05-11 12:27:49 51°13.729 2°56.008 124   104.8 5.9
2001-05-11 12:27:54 51°13.729 2°56.008 124.3   230.4 5.9
2001-05-11 12:27:59 51°13.729 2°56.007 124.8 0.1 282 5.9
2001-05-11 12:28:04 51°13.728 2°56.007 125.7 0.1 264.8 5.9
2001-05-11 12:28:09 51°13.728 2°56.007 126 0.1 254.6 5.9
2001-05-11 12:28:14 51°13.728 2°56.007 126.2   315.8 5.9
2001-05-11 12:28:19 51°13.728 2°56.007 125.7   68.6 5.9
2001-05-11 12:28:24 51°13.728 2°56.007 125.2 0.1 65.5 5.9
2001-05-11 12:28:29 51°13.728 2°56.007 124.8   73.2 5.9
2001-05-11 12:28:34 51°13.728 2°56.007 125   260 5.9
2001-05-11 12:28:39 51°13.728 2°56.007 125.5   258.4 5.9
2001-05-11 12:28:44 51°13.728 2°56.007 125.8 0.1 222.5 5.9
2001-05-11 12:28:49 51°13.728 2°56.007 125.8   154.6 5.9
2001-05-11 12:28:54 51°13.728 2°56.007 125.7   68.2 5.9
2001-05-11 12:28:59 51°13.727 2°56.007 125.5   73.9 5.9
2001-05-11 12:29:04 51°13.727 2°56.007 125.5   243.8 5.9
2001-05-11 12:29:09 51°13.727 2°56.007 125.7   263.7 5.9
2001-05-11 12:29:14 51°13.727 2°56.007 125.7 0.1 302.7 5.9
2001-05-11 12:29:19 51°13.727 2°56.007 125.3 0.1 36.8 5.9
2001-05-11 12:29:24 51°13.727 2°56.007 125.2   98.6 5.9
2001-05-11 12:29:29 51°13.727 2°56.007 125.2   228.4 5.9
2001-05-11 12:29:34 51°13.727 2°56.007 125.3   223.9 5.9
2001-05-11 12:29:39 51°13.727 2°56.007 125.3   168.5 5.9
2001-05-11 12:29:44 51°13.727 2°56.007 125.3   304.9 5.9
2001-05-11 12:29:49 51°13.727 2°56.007 125.3   74 5.9
2001-05-11 12:29:54 51°13.727 2°56.007 125.3   302.6 5.9
2001-05-11 12:29:59 51°13.727 2°56.007 125.5   233.2 5.9
2001-05-11 12:30:04 51°13.727 2°56.007 125.5   42.2 5.9
2001-05-11 12:30:09 51°13.727 2°56.007 125.5   311.9 5.9
2001-05-11 12:30:14 51°13.727 2°56.007 125.3   106.2 5.9
2001-05-11 12:30:19 51°13.727 2°56.007 125.3   182.5 5.9
2001-05-11 12:30:24 51°13.727 2°56.007 125.2   194.4 5.9
2001-05-11 12:30:29 51°13.726 2°56.007 125   55 5.9
2001-05-11 12:30:34 51°13.726 2°56.007 125   318.8 5.9
2001-05-11 12:30:39 51°13.726 2°56.007 125   312.1 5.9
2001-05-11 12:30:44 51°13.726 2°56.006 124.8   356.5 5.9
2001-05-11 12:30:49 51°13.726 2°56.007 124.8   32.1 5.9
2001-05-11 12:30:54 51°13.726 2°56.006 124.8   156.8 5.9
2001-05-11 12:30:59 51°13.726 2°56.006 124.8   213.9 5.9
2001-05-11 12:31:04 51°13.726 2°56.006 124.8   323.3 5.9
2001-05-11 12:31:09 51°13.726 2°56.006 124.8   244 5.9
2001-05-11 12:31:14 51°13.726 2°56.006 124.7   70.9 -999
2001-05-11 12:31:19 51°13.726 2°56.006 124.7   209.5 -999
2001-05-11 12:31:33 51°13.726 2°56.006     39 -999
2001-05-11 12:31:38 51°13.726 2°56.006     231.7 -999
2001-05-11 12:31:43 51°13.726 2°56.006 0.2   51.7 -999
2001-05-11 12:31:48 51°13.726 2°56.006 0.2   136.2 -999
2001-05-11 12:31:53 51°13.726 2°56.006 0.2   43.3 -999
2001-05-11 12:31:58 51°13.726 2°56.006 0.3   223.8 -999
2001-05-11 12:32:23 51°13.726 2°56.006     204.8 -999
2001-05-11 12:32:28 51°13.726 2°56.006     85.8 -999
2001-05-11 12:32:33 51°13.726 2°56.006     290.9 -999
2001-05-11 12:32:38 51°13.726 2°56.006     341.5 -999
2001-05-11 12:32:43 51°13.726 2°56.006     260 -999
2001-05-11 12:32:48 51°13.726 2°56.006     307 -999
2001-05-11 12:32:53 51°13.726 2°56.006     119.3 -999
2001-05-11 12:32:58 51°13.726 2°56.006 0.2   277.8 -999
2001-05-11 12:33:03 51°13.726 2°56.006 0.2   55.6 -999
2001-05-11 12:33:08 51°13.726 2°56.006 0.2   34.9 -999
2001-05-11 12:33:13 51°13.726 2°56.006 0.2   80.2 -999
2001-05-11 12:33:18 51°13.726 2°56.006 0.2   43.2 -999
2001-05-11 12:33:23 51°13.726 2°56.006 0.2   96.4 -999
2001-05-11 12:33:28 51°13.726 2°56.006 0.2   197.8 -999
2001-05-11 12:33:33 51°13.727 2°56.006 0.2   340.7 -999
2001-05-11 12:33:38 51°13.727 2°56.006 0.2   60.6 -999
2001-05-11 12:33:43 51°13.727 2°56.006 0.2   46.3 -999
2001-05-11 12:33:48 51°13.727 2°56.006 0.2   29.1 -999
2001-05-11 12:33:53 51°13.727 2°56.006 0.3   247.8 -999
2001-05-11 12:33:58 51°13.727 2°56.006 0.3   86.3 -999
2001-05-11 12:34:03 51°13.727 2°56.006 0.3   276.9 -999
2001-05-11 12:34:08 51°13.727 2°56.006 0.2   178.9 -999
2001-05-11 12:34:13 51°13.727 2°56.006 0.2   71.5 -999
2001-05-11 12:34:18 51°13.727 2°56.006 0.2   45.3 -999
2001-05-11 12:34:23 51°13.727 2°56.006 0.2   93.8 -999
2001-05-11 12:34:28 51°13.727 2°56.006 0.2   248.4 -999
2001-05-11 12:34:33 51°13.727 2°56.005 0.2   231.7 -999
2001-05-11 12:34:38 51°13.727 2°56.005 0.2   134.3 -999
2001-05-11 12:34:43 51°13.727 2°56.005 0.2   242.7 -999
2001-05-11 12:34:48 51°13.727 2°56.005 0.2   244.7 -999
2001-05-11 12:34:53 51°13.727 2°56.005 0.2 0.1 44.7 -999
2001-05-11 12:34:58 51°13.727 2°56.005 0.2   266.2 -999
2001-05-11 12:35:03 51°13.727 2°56.005 0.2   52.7 -999
2001-05-11 12:35:08 51°13.727 2°56.005 0.2   35.7 -999
2001-05-11 12:35:13 51°13.727 2°56.006     73.3 -999
2001-05-11 12:35:18 51°13.727 2°56.006     178.6 -999
2001-05-11 12:35:23 51°13.728 2°56.006     324.4 -999
2001-05-11 12:35:28 51°13.728 2°56.006     264.1 -999
2001-05-11 12:35:33 51°13.728 2°56.006     206.7 -999
2001-05-11 12:35:38 51°13.728 2°56.006 0.2   36.1 -999
2001-05-11 12:35:43 51°13.728 2°56.006 0.2   173.4 -999
2001-05-11 12:35:48 51°13.728 2°56.006 0.2   282.4 -999
2001-05-11 12:35:53 51°13.728 2°56.006 0.2   83.1 -999
2001-05-11 12:35:58 51°13.728 2°56.006 0.2   40.8 -999
2001-05-11 12:36:03 51°13.728 2°56.006     190.2 -999
2001-05-11 12:36:08 51°13.728 2°56.006     291.5 -999
2001-05-11 12:36:13 51°13.728 2°56.006     122.7 -999
2001-05-11 12:36:18 51°13.728 2°56.006     205 -999
2001-05-11 12:36:23 51°13.728 2°56.006     297.7 -999
2001-05-11 12:36:28 51°13.728 2°56.006 359.8   214.4 -999
2001-05-11 12:36:33 51°13.728 2°56.005 359.8   275.2 -999
2001-05-11 12:36:38 51°13.728 2°56.006 359.8   205.3 -999
2001-05-11 12:36:43 51°13.728 2°56.006 359.8   239.3 -999
2001-05-11 12:36:48 51°13.728 2°56.006 359.8   111.6 -999
2001-05-11 12:36:53 51°13.728 2°56.006 359.8   47.8 -999
2001-05-11 12:36:58 51°13.728 2°56.006 359.8   61.3 -999
2001-05-11 12:37:03 51°13.728 2°56.006 359.8   31.7 -999
2001-05-11 12:37:08 51°13.728 2°56.006     110.2 -999
2001-05-11 12:37:13 51°13.728 2°56.006     54.9 -999
2001-05-11 12:37:18 51°13.728 2°56.006     273.1 -999
2001-05-11 12:37:23 51°13.728 2°56.006     44.8 -999
2001-05-11 12:37:28 51°13.728 2°56.006     161.8 -999
2001-05-11 12:37:33 51°13.727 2°56.006     68.6 -999
2001-05-11 12:37:38 51°13.727 2°56.006     302.8 -999
2001-05-11 12:37:43 51°13.727 2°56.006 359.8   306.9 -999
2001-05-11 12:37:48 51°13.728 2°56.006 359.8   285.8 -999
2001-05-11 12:37:53 51°13.728 2°56.006 359.8   69.3 -999
2001-05-11 12:37:58 51°13.728 2°56.006 359.8   154.6 -999
2001-05-11 12:38:03 51°13.728 2°56.006 359.7   46.7 -999
2001-05-11 12:38:08 51°13.727 2°56.006 359.7   136.5 -999
2001-05-11 12:38:13 51°13.727 2°56.006 359.7   5.2 -999
2001-05-11 12:38:18 51°13.727 2°56.006 359.7   21.7 -999
2001-05-11 12:38:23 51°13.727 2°56.006 359.7   67.7 -999
2001-05-11 12:38:28 51°13.727 2°56.006 359.7   352.6 -999
2001-05-11 12:38:33 51°13.727 2°56.006 359.7   46.3 -999
2001-05-11 12:38:38 51°13.727 2°56.006 359.7   2.3 -999
2001-05-11 12:38:43 51°13.727 2°56.006 359.7   296.5 -999
2001-05-11 12:38:48 51°13.727 2°56.006 359.7   209.9 -999
2001-05-11 12:38:53 51°13.727 2°56.006 359.8   152.5 -999
2001-05-11 12:38:58 51°13.727 2°56.006 359.8   148 -999
2001-05-11 12:39:03 51°13.727 2°56.006 359.8   33.7 -999
2001-05-11 12:39:08 51°13.727 2°56.006 359.8   55.4 -999
2001-05-11 12:39:13 51°13.727 2°56.006 359.8   56.5 -999
2001-05-11 12:39:18 51°13.727 2°56.006 359.8   53.1 -999
2001-05-11 12:39:23 51°13.727 2°56.006 359.8   343.1 -999
2001-05-11 12:39:28 51°13.727 2°56.006 359.8   27.4 -999
2001-05-11 12:39:33 51°13.727 2°56.006 359.7   178.6 -999
2001-05-11 12:39:38 51°13.727 2°56.006 359.5   33.1 -999
2001-05-11 12:39:43 51°13.726 2°56.006 359.5   244.7 -999
2001-05-11 12:39:48 51°13.726 2°56.006 359.5   226.6 -999
2001-05-11 12:39:53 51°13.726 2°56.006 359.5   188.2 -999
2001-05-11 12:39:58 51°13.726 2°56.006 359.5   155.2 -999
2001-05-11 12:40:03 51°13.726 2°56.006 359.5   209.1 -999
2001-05-11 12:40:08 51°13.726 2°56.006 359.7   228.6 -999
2001-05-11 12:40:13 51°13.726 2°56.006 359.7   29.4 -999
2001-05-11 12:40:18 51°13.726 2°56.006 359.7   130.7 -999
2001-05-11 12:40:23 51°13.726 2°56.006 359.7   92.2 -999
2001-05-11 12:40:28 51°13.726 2°56.005 359.7   281.4 -999
2001-05-11 12:40:33 51°13.726 2°56.005 359.7   261.4 -999
2001-05-11 12:40:38 51°13.726 2°56.005 359.7   260.7 -999
2001-05-11 12:40:43 51°13.726 2°56.005 359.5   217.1 -999
2001-05-11 12:40:48 51°13.726 2°56.005 359.5   225.8 -999
2001-05-11 12:40:53 51°13.726 2°56.004 359.3   217.2 -999
2001-05-11 12:40:58 51°13.725 2°56.004 359.3   177.7 -999
2001-05-11 12:41:03 51°13.725 2°56.004 359.5   171.8 -999
2001-05-11 12:41:08 51°13.725 2°56.004 359.5   335 -999
2001-05-11 12:41:13 51°13.725 2°56.004 359.5   81.7 -999
2001-05-11 12:41:18 51°13.725 2°56.004 359.5   63.9 -999
2001-05-11 12:41:23 51°13.725 2°56.003 359.5   127 -999
2001-05-11 12:41:28 51°13.725 2°56.004 359.5   233.8 -999
2001-05-11 12:41:33 51°13.725 2°56.003 359.5   59.4 -999
2001-05-11 12:41:38 51°13.725 2°56.003 359.5   241.2 -999
2001-05-11 12:41:43 51°13.725 2°56.003 359.5   70.7 -999
2001-05-11 12:41:48 51°13.725 2°56.004 359.5   159.2 -999
2001-05-11 12:41:53 51°13.726 2°56.003 359.7   215.2 -999
2001-05-11 12:41:58 51°13.726 2°56.002 359.7   49.2 -999
2001-05-11 12:42:03 51°13.726 2°56.002 359.8   179.4 -999
2001-05-11 12:42:08 51°13.726 2°56.002 359.8   312.6 -999
2001-05-11 12:42:13 51°13.726 2°56.002     63.8 -999
2001-05-11 12:42:18 51°13.726 2°56.002     204.6 -999
2001-05-11 12:42:23 51°13.726 2°56.002     219.8 -999
2001-05-11 12:42:28 51°13.726 2°56.002 0.2   32 -999
2001-05-11 12:42:33 51°13.726 2°56.003 0.2   35.4 -999
2001-05-11 12:42:38 51°13.725 2°56.003 0.3   241.4 -999
2001-05-11 12:42:43 51°13.725 2°56.002 0.3   82 -999
2001-05-11 12:42:48 51°13.725 2°56.002 0.2   200.6 -999
2001-05-11 12:42:53 51°13.725 2°56.002     50.5 -999
2001-05-11 12:42:58 51°13.725 2°56.002     217.3 -999
2001-05-11 12:43:03 51°13.726 2°56.002   0.1 22.7 -999
2001-05-11 12:43:08 51°13.726 2°56.002 359.8   11.7 -999
2001-05-11 12:43:13 51°13.726 2°56.002 359.8 0.1 16.6 -999
2001-05-11 12:43:18 51°13.725 2°56.002 359.7   8.5 -999
2001-05-11 12:43:23 51°13.726 2°56.002 359.7   66.8 -999
2001-05-11 12:43:28 51°13.726 2°56.002 359.5   241.1 -999
2001-05-11 12:43:33 51°13.725 2°56.002 359.5   186.1 -999
2001-05-11 12:43:38 51°13.725 2°56.002 359.5   333.1 -999
2001-05-11 12:43:43 51°13.725 2°56.002 359.5   239.1 -999
2001-05-11 12:43:48 51°13.726 2°56.002 359.5   204.3 -999
2001-05-11 12:43:53 51°13.726 2°56.003 359.7   16.5 -999